createdAt,value
2018-02-19T00:00:17.703Z,74.73
2018-02-19T00:02:45.825Z,74.35
2018-02-19T00:05:13.968Z,74.46
2018-02-19T00:07:42.087Z,74.80
2018-02-19T00:10:10.208Z,73.68
2018-02-19T00:12:38.351Z,74.05
2018-02-19T00:15:06.489Z,74.65
2018-02-19T00:17:34.683Z,74.49
2018-02-19T00:20:02.802Z,74.88
2018-02-19T00:22:30.920Z,75.25
2018-02-19T00:24:59.092Z,74.46
2018-02-19T00:27:27.227Z,75.14
2018-02-19T00:29:55.404Z,75.22
2018-02-19T00:32:23.522Z,75.17
2018-02-19T00:34:51.635Z,75.76
2018-02-19T00:37:19.813Z,74.97
2018-02-19T00:39:47.934Z,75.49
2018-02-19T00:42:16.083Z,75.16
2018-02-19T00:44:44.221Z,75.41
2018-02-19T00:47:12.384Z,75.74
2018-02-19T00:49:40.573Z,75.06
2018-02-19T00:52:08.725Z,75.44
2018-02-19T00:54:36.905Z,75.43
2018-02-19T00:57:05.247Z,75.50
2018-02-19T00:59:33.389Z,75.28
2018-02-19T01:02:01.510Z,75.33
2018-02-19T01:04:29.624Z,75.42
2018-02-19T01:06:57.745Z,76.10
2018-02-19T01:09:25.861Z,75.90
2018-02-19T01:11:54.005Z,77.16
2018-02-19T01:14:22.115Z,76.12
2018-02-19T01:16:50.236Z,75.88
2018-02-19T01:19:18.367Z,76.08
2018-02-19T01:21:46.477Z,75.95
2018-02-19T01:24:14.599Z,75.90
2018-02-19T01:26:42.724Z,76.36
2018-02-19T01:29:10.837Z,76.00
2018-02-19T01:31:38.969Z,76.14
2018-02-19T01:34:07.087Z,76.25
2018-02-19T01:36:35.218Z,76.29
2018-02-19T01:39:03.355Z,76.50
2018-02-19T01:41:31.480Z,76.58
2018-02-19T01:43:59.583Z,76.89
2018-02-19T01:46:27.725Z,75.91
2018-02-19T01:48:55.835Z,76.30
2018-02-19T01:51:23.992Z,76.62
2018-02-19T01:53:52.092Z,77.10
2018-02-19T01:56:20.226Z,76.83
2018-02-19T01:58:48.347Z,77.25
2018-02-19T02:01:16.493Z,77.22
2018-02-19T02:03:44.636Z,77.20
2018-02-19T02:06:12.842Z,76.83
2018-02-19T02:08:41.230Z,76.97
2018-02-19T02:11:09.430Z,76.58
2018-02-19T02:13:37.568Z,77.19
2018-02-19T02:16:05.688Z,76.79
2018-02-19T02:18:33.814Z,77.23
2018-02-19T02:21:01.978Z,77.10
2018-02-19T02:23:30.096Z,77.45
2018-02-19T02:25:58.233Z,76.63
2018-02-19T02:28:26.361Z,76.90
2018-02-19T02:30:54.483Z,77.05
2018-02-19T02:33:22.611Z,77.20
2018-02-19T02:35:50.733Z,77.84
2018-02-19T02:38:18.847Z,77.18
2018-02-19T02:40:46.970Z,77.29
2018-02-19T02:43:15.103Z,77.76
2018-02-19T02:45:43.215Z,77.15
2018-02-19T02:48:11.350Z,77.75
2018-02-19T02:50:39.475Z,78.45
2018-02-19T02:53:07.599Z,77.69
2018-02-19T02:55:35.703Z,77.71
2018-02-19T02:58:03.834Z,78.11
2018-02-19T03:00:31.942Z,77.76
2018-02-19T03:03:00.100Z,77.19
2018-02-19T03:05:28.217Z,77.83
2018-02-19T03:07:56.318Z,78.62
2018-02-19T03:10:24.434Z,78.02
2018-02-19T03:12:52.619Z,77.80
2018-02-19T03:15:20.730Z,77.68
2018-02-19T03:17:48.858Z,77.57
2018-02-19T03:20:16.976Z,77.51
2018-02-19T03:22:45.084Z,77.46
2018-02-19T03:25:13.232Z,77.72
2018-02-19T03:27:41.343Z,77.26
2018-02-19T03:30:09.470Z,77.79
2018-02-19T03:32:37.580Z,77.52
2018-02-19T03:35:05.687Z,77.64
2018-02-19T03:37:33.802Z,78.19
2018-02-19T03:40:01.933Z,77.85
2018-02-19T03:42:30.044Z,78.10
2018-02-19T03:44:58.176Z,77.52
2018-02-19T03:47:26.282Z,78.13
2018-02-19T03:49:54.410Z,78.48
2018-02-19T03:52:22.512Z,78.78
2018-02-19T03:54:50.641Z,78.53
2018-02-19T03:57:18.764Z,78.91
2018-02-19T03:59:46.884Z,78.87
2018-02-19T04:02:15.010Z,78.38
2018-02-19T04:04:43.116Z,78.41
2018-02-19T04:07:12.107Z,78.07
2018-02-19T04:09:40.216Z,78.21
2018-02-19T04:12:08.341Z,78.98
2018-02-19T04:14:36.454Z,79.37
2018-02-19T04:17:04.566Z,78.17
2018-02-19T04:19:32.692Z,78.66
2018-02-19T04:22:00.831Z,78.05
2018-02-19T04:24:28.949Z,78.30
2018-02-19T04:26:57.092Z,78.67
2018-02-19T04:29:25.213Z,78.10
2018-02-19T04:31:53.363Z,77.78
2018-02-19T04:34:21.477Z,77.73
2018-02-19T04:36:49.586Z,77.44
2018-02-19T04:39:17.699Z,77.67
2018-02-19T04:41:45.842Z,77.61
2018-02-19T04:47:15.850Z,77.73
2018-02-19T04:49:43.970Z,77.49
2018-02-19T04:52:12.101Z,77.29
2018-02-19T04:54:40.216Z,77.41
2018-02-19T04:57:08.323Z,77.46
2018-02-19T04:59:36.439Z,77.30
2018-02-19T05:02:04.574Z,77.38
2018-02-19T05:04:32.744Z,77.23
2018-02-19T05:07:00.857Z,77.69
2018-02-19T05:09:29.005Z,77.24
2018-02-19T05:11:57.113Z,76.87
2018-02-19T05:14:25.250Z,77.22
2018-02-19T05:16:53.351Z,77.75
2018-02-19T05:19:21.501Z,77.83
2018-02-19T05:21:49.605Z,77.29
2018-02-19T05:24:17.733Z,77.74
2018-02-19T05:26:45.854Z,77.85
2018-02-19T05:29:13.970Z,77.93
2018-02-19T05:31:42.077Z,77.80
2018-02-19T05:34:10.213Z,77.52
2018-02-19T05:36:38.338Z,77.23
2018-02-19T05:39:06.452Z,77.42
2018-02-19T05:41:34.568Z,76.57
2018-02-19T05:44:02.705Z,76.80
2018-02-19T05:46:30.818Z,76.54
2018-02-19T05:48:58.946Z,76.67
2018-02-19T05:51:27.074Z,76.46
2018-02-19T05:53:55.319Z,76.73
2018-02-19T05:56:23.492Z,76.54
2018-02-19T05:58:51.591Z,76.09
2018-02-19T06:01:19.734Z,76.33
2018-02-19T06:03:47.844Z,76.27
2018-02-19T06:06:15.979Z,76.57
2018-02-19T06:08:44.147Z,76.67
2018-02-19T06:11:12.283Z,76.31
2018-02-19T06:13:40.407Z,76.05
2018-02-19T06:16:08.526Z,75.79
2018-02-19T06:18:36.685Z,76.01
2018-02-19T06:21:04.768Z,75.59
2018-02-19T06:23:36.711Z,75.21
2018-02-19T06:26:04.844Z,75.61
2018-02-19T06:28:32.959Z,75.62
2018-02-19T06:31:01.104Z,75.77
2018-02-19T06:33:29.226Z,76.38
2018-02-19T06:35:57.368Z,76.00
2018-02-19T06:38:25.825Z,75.52
2018-02-19T06:40:53.946Z,75.42
2018-02-19T06:43:22.111Z,75.81
2018-02-19T06:45:50.202Z,75.50
2018-02-19T06:48:18.349Z,75.66
2018-02-19T06:50:46.447Z,75.02
2018-02-19T06:53:14.577Z,74.86
2018-02-19T06:55:42.702Z,74.91
2018-02-19T06:58:10.825Z,74.94
2018-02-19T07:00:38.941Z,74.66
2018-02-19T07:03:07.073Z,74.40
2018-02-19T07:05:35.195Z,74.49
2018-02-19T07:08:03.671Z,74.34
2018-02-19T07:10:31.782Z,73.75
2018-02-19T07:12:59.913Z,73.95
2018-02-19T07:15:28.047Z,74.27
2018-02-19T07:17:56.203Z,74.08
2018-02-19T07:20:24.312Z,73.35
2018-02-19T07:22:56.091Z,73.76
2018-02-19T07:25:24.230Z,74.00
2018-02-19T07:27:55.701Z,74.28
2018-02-19T07:30:23.978Z,74.26
2018-02-19T07:32:52.079Z,74.61
2018-02-19T07:35:20.204Z,74.48
2018-02-19T07:37:48.348Z,73.92
2018-02-19T07:40:16.515Z,74.00
2018-02-19T07:42:44.624Z,74.23
2018-02-19T07:45:12.752Z,74.53
2018-02-19T07:47:41.264Z,74.92
2018-02-19T07:50:09.397Z,73.92
2018-02-19T07:52:37.527Z,74.15
2018-02-19T07:55:05.670Z,73.88
2018-02-19T07:57:33.785Z,74.07
2018-02-19T08:00:01.909Z,73.30
2018-02-19T08:02:30.034Z,73.62
2018-02-19T08:04:59.047Z,72.94
2018-02-19T08:07:27.184Z,73.71
2018-02-19T08:09:55.314Z,73.44
2018-02-19T08:12:23.440Z,72.79
2018-02-19T08:14:51.574Z,73.07
2018-02-19T08:17:19.670Z,73.18
2018-02-19T08:19:47.786Z,72.54
2018-02-19T08:22:15.917Z,72.72
2018-02-19T08:24:44.029Z,72.80
2018-02-19T08:27:12.171Z,72.71
2018-02-19T08:29:40.272Z,72.93
2018-02-19T08:32:08.395Z,72.70
2018-02-19T08:34:36.566Z,72.51
2018-02-19T08:37:04.703Z,72.09
2018-02-19T08:39:32.826Z,72.07
2018-02-19T08:42:00.949Z,71.35
2018-02-19T08:44:29.138Z,71.20
2018-02-19T08:46:57.271Z,71.08
2018-02-19T08:49:25.455Z,71.64
2018-02-19T08:51:53.626Z,71.67
2018-02-19T08:54:22.271Z,70.74
2018-02-19T08:56:50.482Z,71.00
2018-02-19T08:59:21.904Z,71.10
2018-02-19T09:01:53.396Z,70.95
2018-02-19T09:04:21.606Z,71.10
2018-02-19T09:06:49.761Z,70.24
2018-02-19T09:09:17.890Z,70.25
2018-02-19T09:11:49.399Z,70.31
2018-02-19T09:14:17.719Z,69.37
2018-02-19T09:16:46.161Z,68.54
2018-02-19T09:19:14.373Z,68.65
2018-02-19T09:21:42.508Z,68.54
2018-02-19T09:24:10.728Z,68.36
2018-02-19T09:26:38.841Z,67.48
2018-02-19T09:29:06.965Z,67.89
2018-02-19T09:31:35.086Z,71.35
2018-02-19T09:34:03.234Z,66.93
2018-02-19T09:36:31.367Z,67.09
2018-02-19T09:38:59.483Z,66.53
2018-02-19T09:41:27.667Z,66.42
2018-02-19T09:43:55.809Z,66.73
2018-02-19T09:46:23.920Z,66.68
2018-02-19T09:48:52.040Z,66.49
2018-02-19T09:51:20.164Z,66.34
2018-02-19T09:53:48.290Z,67.07
2018-02-19T09:56:16.424Z,65.93
2018-02-19T09:58:44.555Z,66.16
2018-02-19T10:01:12.678Z,66.67
2018-02-19T10:03:40.784Z,66.93
2018-02-19T10:06:08.923Z,66.26
2018-02-19T10:08:37.053Z,66.20
2018-02-19T10:11:05.190Z,66.73
2018-02-19T10:13:33.320Z,65.83
2018-02-19T10:16:01.449Z,66.54
2018-02-19T10:18:29.605Z,65.92
2018-02-19T10:20:57.751Z,65.76
2018-02-19T10:23:25.888Z,65.48
2018-02-19T10:25:57.042Z,65.05
2018-02-19T10:28:25.714Z,65.77
2018-02-19T10:30:53.854Z,65.50
2018-02-19T10:33:22.053Z,65.38
2018-02-19T10:35:50.173Z,64.45
2018-02-19T10:38:18.297Z,65.32
2018-02-19T10:40:46.472Z,64.54
2018-02-19T10:43:14.606Z,63.74
2018-02-19T10:45:42.734Z,63.97
2018-02-19T10:48:10.867Z,64.27
2018-02-19T10:50:38.995Z,63.66
2018-02-19T10:53:07.115Z,64.16
2018-02-19T10:55:35.224Z,63.01
2018-02-19T10:58:03.350Z,63.32
2018-02-19T11:00:37.317Z,62.99
2018-02-19T11:03:05.469Z,62.09
2018-02-19T11:05:33.572Z,62.08
2018-02-19T11:08:01.699Z,61.39
2018-02-19T11:10:29.809Z,62.56
2018-02-19T11:12:57.961Z,61.95
2018-02-19T11:15:26.099Z,61.40
2018-02-19T11:17:54.287Z,61.18
2018-02-19T11:20:22.424Z,61.17
2018-02-19T11:22:50.544Z,60.07
2018-02-19T11:25:18.668Z,60.29
2018-02-19T11:27:46.776Z,60.75
2018-02-19T11:30:14.952Z,60.70
2018-02-19T11:32:43.098Z,60.02
2018-02-19T11:35:11.227Z,60.25
2018-02-19T11:37:39.352Z,59.97
2018-02-19T11:40:07.470Z,59.41
2018-02-19T11:42:35.595Z,59.50
2018-02-19T11:45:03.724Z,59.57
2018-02-19T11:47:31.841Z,58.68
2018-02-19T11:49:59.978Z,58.77
2018-02-19T11:52:28.104Z,58.65
2018-02-19T11:54:56.252Z,59.00
2018-02-19T11:57:24.381Z,59.24
2018-02-19T11:59:52.549Z,57.52
2018-02-19T12:02:20.607Z,57.39
2018-02-19T12:04:48.749Z,57.91
2018-02-19T12:07:16.869Z,59.86
2018-02-19T12:09:45.001Z,60.00
2018-02-19T12:12:13.107Z,57.57
2018-02-19T12:14:41.255Z,58.59
2018-02-19T12:17:09.390Z,58.14
2018-02-19T12:19:37.519Z,58.87
2018-02-19T12:22:05.665Z,57.92
2018-02-19T12:24:33.796Z,57.48
2018-02-19T12:27:01.922Z,56.40
2018-02-19T12:29:30.034Z,56.52
2018-02-19T12:31:58.146Z,56.92
2018-02-19T12:34:26.322Z,56.56
2018-02-19T12:36:54.418Z,56.44
2018-02-19T12:39:22.555Z,56.67
2018-02-19T12:41:50.674Z,57.05
2018-02-19T12:44:18.820Z,56.51
2018-02-19T12:46:46.930Z,56.38
2018-02-19T12:49:15.090Z,54.96
2018-02-19T12:51:43.199Z,56.07
2018-02-19T12:54:11.333Z,56.21
2018-02-19T12:56:39.458Z,54.79
2018-02-19T12:59:07.571Z,53.90
2018-02-19T13:01:35.733Z,55.10
2018-02-19T13:04:03.849Z,56.65
2018-02-19T13:06:35.000Z,55.50
2018-02-19T13:09:03.146Z,55.33
2018-02-19T13:11:31.261Z,55.09
2018-02-19T13:13:59.366Z,54.52
2018-02-19T13:16:27.494Z,55.09
2018-02-19T13:18:55.626Z,56.32
2018-02-19T13:21:23.736Z,56.38
2018-02-19T13:23:51.858Z,55.79
2018-02-19T13:26:19.976Z,55.30
2018-02-19T13:28:48.099Z,56.01
2018-02-19T13:31:16.223Z,55.66
2018-02-19T13:33:44.379Z,56.21
2018-02-19T13:36:12.520Z,56.72
2018-02-19T13:38:40.626Z,57.10
2018-02-19T13:41:08.769Z,56.19
2018-02-19T13:43:47.726Z,56.61
2018-02-19T13:46:15.852Z,56.54
2018-02-19T13:48:44.004Z,56.14
2018-02-19T13:51:12.125Z,55.73
2018-02-19T13:53:40.252Z,55.00
2018-02-19T13:56:08.385Z,55.71
2018-02-19T13:58:36.519Z,56.57
2018-02-19T14:01:04.713Z,56.05
2018-02-19T14:03:32.858Z,55.95
2018-02-19T14:06:04.543Z,55.23
2018-02-19T14:08:32.675Z,55.24
2018-02-19T14:11:00.784Z,55.33
2018-02-19T14:13:28.899Z,54.88
2018-02-19T14:15:57.037Z,54.56
2018-02-19T14:18:25.767Z,54.24
2018-02-19T14:20:53.906Z,54.80
2018-02-19T14:23:22.029Z,55.11
2018-02-19T14:25:50.181Z,56.86
2018-02-19T14:28:18.324Z,55.15
2018-02-19T14:30:46.443Z,55.82
2018-02-19T14:33:14.847Z,54.74
2018-02-19T14:35:46.349Z,54.89
2018-02-19T14:38:14.513Z,54.13
2018-02-19T14:40:42.637Z,55.07
2018-02-19T14:43:10.770Z,55.71
2018-02-19T14:45:38.916Z,56.07
2018-02-19T14:48:07.021Z,56.04
2018-02-19T14:50:35.217Z,54.50
2018-02-19T14:53:03.350Z,54.49
2018-02-19T14:55:31.478Z,55.31
2018-02-19T14:57:59.596Z,53.84
2018-02-19T15:00:27.736Z,53.82
2018-02-19T15:02:55.868Z,54.47
2018-02-19T15:05:23.973Z,55.16
2018-02-19T15:07:52.110Z,54.60
2018-02-19T15:10:21.138Z,54.33
2018-02-19T15:12:49.270Z,54.73
2018-02-19T15:15:17.395Z,54.94
2018-02-19T15:17:45.531Z,54.43
2018-02-19T15:20:13.641Z,55.02
2018-02-19T15:22:41.801Z,54.51
2018-02-19T15:25:09.923Z,55.32
2018-02-19T15:27:38.042Z,54.68
2018-02-19T15:30:06.174Z,55.17
2018-02-19T15:32:34.321Z,55.46
2018-02-19T15:35:02.449Z,55.49
2018-02-19T15:37:30.561Z,55.89
2018-02-19T15:39:58.689Z,55.22
2018-02-19T15:42:26.834Z,55.45
2018-02-19T15:44:54.956Z,55.44
2018-02-19T15:47:23.082Z,55.28
2018-02-19T15:49:51.194Z,55.36
2018-02-19T15:52:19.333Z,55.69
2018-02-19T15:54:47.461Z,55.29
2018-02-19T15:57:15.583Z,54.74
2018-02-19T15:59:43.716Z,55.77
2018-02-19T16:02:11.838Z,56.60
2018-02-19T16:04:39.971Z,55.98
2018-02-19T16:07:08.084Z,55.35
2018-02-19T16:09:36.230Z,55.81
2018-02-19T16:12:04.376Z,55.73
2018-02-19T16:14:32.494Z,56.19
2018-02-19T16:17:00.596Z,55.88
2018-02-19T16:19:28.743Z,56.35
2018-02-19T16:21:56.880Z,55.88
2018-02-19T16:24:25.051Z,56.62
2018-02-19T16:26:53.209Z,56.43
2018-02-19T16:29:21.338Z,56.18
2018-02-19T16:31:50.357Z,56.50
2018-02-19T16:34:18.511Z,56.98
2018-02-19T16:36:46.626Z,56.73
2018-02-19T16:39:14.757Z,56.99
2018-02-19T16:41:42.883Z,57.46
2018-02-19T16:44:11.008Z,57.53
2018-02-19T16:46:39.132Z,58.20
2018-02-19T16:49:07.269Z,58.07
2018-02-19T16:51:35.728Z,58.02
2018-02-19T16:54:03.942Z,58.49
2018-02-19T16:56:32.057Z,58.92
2018-02-19T16:59:00.204Z,59.17
2018-02-19T17:01:28.337Z,59.30
2018-02-19T17:03:56.451Z,59.72
2018-02-19T17:06:24.569Z,59.91
2018-02-19T17:08:52.794Z,59.95
2018-02-19T17:11:20.894Z,59.75
2018-02-19T17:13:49.021Z,60.09
2018-02-19T17:16:17.139Z,60.39
2018-02-19T17:18:45.276Z,60.55
2018-02-19T17:21:13.420Z,60.19
2018-02-19T17:23:41.564Z,61.00
2018-02-19T17:26:09.656Z,60.75
2018-02-19T17:28:37.796Z,60.90
2018-02-19T17:31:05.911Z,61.57
2018-02-19T17:33:34.057Z,61.55
2018-02-19T17:36:02.182Z,61.66
2018-02-19T17:38:30.314Z,61.68
2018-02-19T17:40:58.441Z,62.21
2018-02-19T17:43:26.572Z,62.38
2018-02-19T17:45:54.681Z,62.64
2018-02-19T17:48:22.819Z,63.03
2018-02-19T17:50:51.083Z,63.04
2018-02-19T17:53:19.212Z,62.40
2018-02-19T17:55:47.333Z,62.79
2018-02-19T17:58:15.556Z,62.58
2018-02-19T18:00:43.678Z,63.82
2018-02-19T18:03:11.792Z,64.06
2018-02-19T18:05:39.918Z,63.90
2018-02-19T18:08:08.040Z,63.90
2018-02-19T18:10:36.149Z,63.97
2018-02-19T18:13:04.276Z,63.95
2018-02-19T18:15:32.387Z,63.47
2018-02-19T18:18:00.544Z,64.20
2018-02-19T18:20:28.660Z,64.00
2018-02-19T18:22:56.804Z,64.53
2018-02-19T18:25:24.947Z,64.63
2018-02-19T18:27:53.081Z,64.18
2018-02-19T18:30:21.232Z,64.10
2018-02-19T18:32:52.764Z,64.09
2018-02-19T18:35:20.982Z,64.14
2018-02-19T18:37:49.117Z,64.91
2018-02-19T18:40:17.248Z,65.11
2018-02-19T18:42:45.387Z,64.87
2018-02-19T18:45:13.488Z,64.69
2018-02-19T18:47:41.678Z,64.74
2018-02-19T18:50:09.808Z,64.88
2018-02-19T18:52:37.946Z,65.48
2018-02-19T18:55:06.071Z,65.70
2018-02-19T18:57:34.223Z,65.28
2018-02-19T19:00:02.358Z,66.01
2018-02-19T19:02:30.489Z,66.46
2018-02-19T19:04:58.618Z,66.06
2018-02-19T19:07:38.459Z,65.34
2018-02-19T19:13:08.727Z,65.17
2018-02-19T19:15:36.861Z,65.00
2018-02-19T19:18:04.951Z,65.63
2018-02-19T19:20:33.068Z,65.76
2018-02-19T19:23:01.185Z,66.66
2018-02-19T19:25:29.312Z,66.53
2018-02-19T19:27:57.441Z,66.40
2018-02-19T19:30:25.568Z,66.16
2018-02-19T19:32:53.695Z,65.97
2018-02-19T19:35:21.827Z,66.32
2018-02-19T19:37:49.953Z,66.16
2018-02-19T19:40:18.083Z,66.23
2018-02-19T19:42:46.200Z,66.24
2018-02-19T19:45:14.325Z,66.44
2018-02-19T19:47:42.451Z,65.54
2018-02-19T19:50:10.581Z,66.52
2018-02-19T19:52:38.716Z,66.55
2018-02-19T19:55:09.996Z,66.70
2018-02-19T19:57:38.326Z,66.63
2018-02-19T20:00:06.444Z,66.99
2018-02-19T20:02:34.583Z,67.06
2018-02-19T20:05:02.706Z,66.87
2018-02-19T20:07:30.831Z,66.52
2018-02-19T20:10:00.856Z,67.01
2018-02-19T20:12:29.335Z,67.30
2018-02-19T20:14:57.495Z,66.74
2018-02-19T20:17:25.624Z,66.68
2018-02-19T20:19:53.752Z,67.44
2018-02-19T20:22:25.153Z,67.79
2018-02-19T20:24:53.463Z,67.93
2018-02-19T20:27:21.605Z,67.19
2018-02-19T20:29:49.730Z,67.43
2018-02-19T20:32:17.852Z,67.43
2018-02-19T20:34:45.983Z,67.39
2018-02-19T20:37:14.109Z,66.96
2018-02-19T20:39:42.239Z,67.04
2018-02-19T20:42:10.358Z,66.62
2018-02-19T20:44:38.480Z,67.39
2018-02-19T20:47:06.603Z,67.75
2018-02-19T20:49:34.706Z,67.85
2018-02-19T20:52:02.825Z,67.83
2018-02-19T20:54:30.958Z,67.55
2018-02-19T20:56:59.080Z,66.99
2018-02-19T20:59:27.216Z,67.63
2018-02-19T21:01:55.329Z,68.11
2018-02-19T21:04:23.451Z,67.25
2018-02-19T21:06:51.573Z,67.85
2018-02-19T21:09:19.717Z,68.60
2018-02-19T21:11:47.837Z,68.46
2018-02-19T21:14:15.956Z,68.47
2018-02-19T21:16:44.075Z,68.42
2018-02-19T21:19:12.184Z,68.48
2018-02-19T21:21:40.326Z,68.64
2018-02-19T21:24:08.458Z,68.49
2018-02-19T21:26:36.575Z,68.37
2018-02-19T21:29:04.686Z,68.32
2018-02-19T21:31:32.824Z,68.88
2018-02-19T21:34:00.940Z,68.80
2018-02-19T21:36:29.064Z,69.27
2018-02-19T21:38:57.210Z,69.64
2018-02-19T21:41:25.299Z,69.57
2018-02-19T21:43:53.417Z,69.57
2018-02-19T21:46:21.531Z,69.83
2018-02-19T21:48:49.702Z,70.18
2018-02-19T21:51:17.768Z,70.26
2018-02-19T21:53:45.900Z,70.06
2018-02-19T21:56:14.033Z,69.79
2018-02-19T21:58:42.143Z,69.90
2018-02-19T22:01:10.443Z,69.98
2018-02-19T22:03:38.553Z,70.01
2018-02-19T22:06:06.691Z,70.49
2018-02-19T22:08:34.806Z,70.59
2018-02-19T22:11:02.938Z,71.06
2018-02-19T22:13:31.074Z,71.26
2018-02-19T22:15:59.203Z,71.26
2018-02-19T22:18:27.424Z,71.18
2018-02-19T22:20:55.556Z,71.40
2018-02-19T22:23:23.724Z,71.29
2018-02-19T22:25:51.825Z,71.30
2018-02-19T22:28:19.954Z,71.16
2018-02-19T22:30:48.099Z,70.97
2018-02-19T22:33:16.208Z,70.84
2018-02-19T22:35:44.312Z,71.25
2018-02-19T22:38:12.427Z,71.18
2018-02-19T22:40:40.562Z,70.98
2018-02-19T22:43:08.689Z,71.20
2018-02-19T22:45:36.800Z,71.89
2018-02-19T22:48:04.931Z,71.82
2018-02-19T22:50:33.078Z,71.61
2018-02-19T22:53:01.205Z,72.32
2018-02-19T22:55:35.587Z,73.10
2018-02-19T22:58:03.701Z,73.16
2018-02-19T23:00:31.833Z,73.62
2018-02-19T23:02:59.942Z,73.79
2018-02-19T23:05:28.060Z,74.12
2018-02-19T23:07:56.185Z,74.04
2018-02-19T23:10:24.311Z,74.20
2018-02-19T23:12:52.431Z,73.81
2018-02-19T23:15:20.545Z,74.42
2018-02-19T23:17:48.682Z,74.51
2018-02-19T23:20:16.803Z,74.97
2018-02-19T23:22:44.935Z,74.78
2018-02-19T23:25:13.057Z,74.97
2018-02-19T23:27:41.197Z,75.45
2018-02-19T23:47:36.509Z,76.51
2018-02-19T23:50:07.510Z,77.01
2018-02-19T23:52:35.716Z,76.93
2018-02-19T23:55:09.863Z,76.73
2018-02-19T23:57:38.851Z,77.07
